EJU75IR LFPO-LEXJ
Flight info
| Callsign | EJU75IR |
|---|---|
| Flight time | 1h 16m |
| Altitude | 33000 |
| Route | AGOPA DCT ARNAV DCT POI DCT GALOF DCT NENEM Q42 XORNA |
| Aircraft | A319/M-SDE3FGHIRWY/LB1 |
Departure
| Time | 2026-05-08 16:47 |
|---|---|
| Airport | Paris-Orly Airport (LFPO) |
Arrival
| Time | 2026-05-08 18:03 |
|---|---|
| Airport | Seve Ballesteros-Santander Airport (LEXJ) |
| Time | Latitude | Longitude | Altitude | Speed | Heading |
|---|---|---|---|---|---|
| 2026-05-08 16:14 | 48.72718 | 2.35386 | 292 ft | 0 kts | 293° |
| 2026-05-08 16:39 | 48.72718 | 2.35387 | 290 ft | 1 kts | 293° |
| 2026-05-08 16:40 | 48.72710 | 2.35420 | 291 ft | 4 kts | 283° |
| 2026-05-08 16:40 | 48.72707 | 2.35459 | 294 ft | 4 kts | 256° |
| 2026-05-08 16:40 | 48.72717 | 2.35486 | 293 ft | 4 kts | 184° |
| 2026-05-08 16:40 | 48.72740 | 2.35480 | 290 ft | 2 kts | 165° |
| 2026-05-08 16:41 | 48.72742 | 2.35479 | 290 ft | 0 kts | 165° |
| 2026-05-08 16:43 | 48.72731 | 2.35483 | 296 ft | 3 kts | 164° |
| 2026-05-08 16:43 | 48.72696 | 2.35498 | 293 ft | 7 kts | 164° |
| 2026-05-08 16:44 | 48.72632 | 2.35525 | 293 ft | 12 kts | 164° |
| 2026-05-08 16:44 | 48.72543 | 2.35563 | 290 ft | 15 kts | 164° |
| 2026-05-08 16:44 | 48.72440 | 2.35606 | 293 ft | 16 kts | 165° |
| 2026-05-08 16:44 | 48.72340 | 2.35639 | 290 ft | 14 kts | 185° |
| 2026-05-08 16:45 | 48.72246 | 2.35601 | 290 ft | 14 kts | 184° |
| 2026-05-08 16:45 | 48.72158 | 2.35629 | 290 ft | 13 kts | 166° |
| 2026-05-08 16:45 | 48.72074 | 2.35677 | 293 ft | 13 kts | 147° |
| 2026-05-08 16:45 | 48.72016 | 2.35784 | 291 ft | 13 kts | 120° |
| 2026-05-08 16:46 | 48.71976 | 2.35897 | 293 ft | 10 kts | 118° |
| 2026-05-08 16:46 | 48.71963 | 2.35976 | 291 ft | 6 kts | 75° |
| 2026-05-08 16:46 | 48.71964 | 2.35984 | 291 ft | 1 kts | 75° |
| 2026-05-08 16:46 | 48.71991 | 2.36129 | 293 ft | 47 kts | 74° |
| 2026-05-08 16:47 | 48.72151 | 2.36996 | 293 ft | 123 kts | 74° |
| 2026-05-08 16:47 | 48.72427 | 2.38487 | 562 ft | 156 kts | 73° |
| 2026-05-08 16:47 | 48.72717 | 2.40071 | 1377 ft | 155 kts | 73° |
| 2026-05-08 16:47 | 48.73006 | 2.41636 | 2195 ft | 154 kts | 74° |
| 2026-05-08 16:48 | 48.73293 | 2.43195 | 2981 ft | 153 kts | 73° |
| 2026-05-08 16:48 | 48.73581 | 2.44758 | 3696 ft | 157 kts | 73° |
| 2026-05-08 16:48 | 48.73896 | 2.46460 | 4131 ft | 179 kts | 74° |
| 2026-05-08 16:48 | 48.74152 | 2.48427 | 4517 ft | 202 kts | 83° |
| 2026-05-08 16:49 | 48.74257 | 2.50697 | 4915 ft | 229 kts | 86° |
| 2026-05-08 16:49 | 48.74322 | 2.53238 | 5451 ft | 254 kts | 87° |
| 2026-05-08 16:49 | 48.74338 | 2.56000 | 6226 ft | 269 kts | 96° |
| 2026-05-08 16:49 | 48.73729 | 2.58700 | 7109 ft | 277 kts | 122° |
| 2026-05-08 16:50 | 48.72416 | 2.60852 | 8061 ft | 282 kts | 147° |
| 2026-05-08 16:50 | 48.70613 | 2.61993 | 9078 ft | 282 kts | 172° |
| 2026-05-08 16:50 | 48.68662 | 2.61883 | 10082 ft | 283 kts | 197° |
| 2026-05-08 16:50 | 48.66903 | 2.60571 | 10940 ft | 289 kts | 216° |
| 2026-05-08 16:51 | 48.65195 | 2.58720 | 11324 ft | 313 kts | 217° |
| 2026-05-08 16:51 | 48.63367 | 2.56763 | 11904 ft | 328 kts | 216° |
| 2026-05-08 16:51 | 48.61473 | 2.54786 | 12670 ft | 334 kts | 216° |
| 2026-05-08 16:51 | 48.59534 | 2.52797 | 13468 ft | 338 kts | 215° |
| 2026-05-08 16:52 | 48.57576 | 2.50807 | 14283 ft | 342 kts | 215° |
| 2026-05-08 16:52 | 48.55593 | 2.48796 | 15046 ft | 345 kts | 215° |
| 2026-05-08 16:52 | 48.53589 | 2.46767 | 15811 ft | 349 kts | 215° |
| 2026-05-08 16:52 | 48.51567 | 2.44711 | 16573 ft | 352 kts | 216° |
| 2026-05-08 16:53 | 48.47487 | 2.40551 | 18071 ft | 360 kts | 216° |
| 2026-05-08 16:53 | 48.45375 | 2.38399 | 18751 ft | 364 kts | 216° |
| 2026-05-08 16:53 | 48.43270 | 2.36256 | 19368 ft | 368 kts | 217° |
| 2026-05-08 16:54 | 48.41126 | 2.34080 | 19961 ft | 373 kts | 217° |
| 2026-05-08 16:54 | 48.38988 | 2.31914 | 20571 ft | 378 kts | 217° |
| 2026-05-08 16:54 | 48.36764 | 2.29664 | 21177 ft | 383 kts | 218° |
| 2026-05-08 16:54 | 48.34571 | 2.27444 | 21752 ft | 388 kts | 218° |
| 2026-05-08 16:55 | 48.32321 | 2.25165 | 22337 ft | 393 kts | 218° |
| 2026-05-08 16:55 | 48.30036 | 2.22852 | 22910 ft | 398 kts | 219° |
| 2026-05-08 16:55 | 48.27726 | 2.20519 | 23461 ft | 403 kts | 219° |
| 2026-05-08 16:55 | 48.25387 | 2.18163 | 23935 ft | 407 kts | 219° |
| 2026-05-08 16:56 | 48.23022 | 2.15780 | 24418 ft | 410 kts | 219° |
| 2026-05-08 16:56 | 48.20652 | 2.13390 | 24900 ft | 413 kts | 219° |
| 2026-05-08 16:56 | 48.18265 | 2.10976 | 25374 ft | 415 kts | 218° |
| 2026-05-08 16:56 | 48.15859 | 2.08546 | 25858 ft | 417 kts | 218° |
| 2026-05-08 16:57 | 48.13444 | 2.06113 | 26338 ft | 420 kts | 218° |
| 2026-05-08 16:57 | 48.11007 | 2.03685 | 26817 ft | 423 kts | 216° |
| 2026-05-08 16:57 | 48.08369 | 2.01641 | 27278 ft | 430 kts | 206° |
| 2026-05-08 16:57 | 48.05494 | 2.00272 | 27747 ft | 438 kts | 196° |
| 2026-05-08 16:58 | 48.02518 | 1.99475 | 28205 ft | 442 kts | 193° |
| 2026-05-08 16:58 | 47.99477 | 1.98710 | 28653 ft | 444 kts | 193° |
| 2026-05-08 16:58 | 47.96380 | 1.97928 | 29113 ft | 446 kts | 193° |
| 2026-05-08 16:58 | 47.93309 | 1.97152 | 29553 ft | 449 kts | 193° |
| 2026-05-08 16:59 | 47.90266 | 1.96382 | 29966 ft | 451 kts | 193° |
| 2026-05-08 16:59 | 47.87170 | 1.95599 | 30325 ft | 453 kts | 193° |
| 2026-05-08 16:59 | 47.84053 | 1.94812 | 30659 ft | 455 kts | 193° |
| 2026-05-08 16:59 | 47.80920 | 1.94025 | 30976 ft | 458 kts | 193° |
| 2026-05-08 17:00 | 47.77768 | 1.93234 | 31284 ft | 460 kts | 193° |
| 2026-05-08 17:00 | 47.74607 | 1.92442 | 31658 ft | 460 kts | 193° |
| 2026-05-08 17:00 | 47.71455 | 1.91651 | 32143 ft | 458 kts | 193° |
| 2026-05-08 17:00 | 47.68317 | 1.90864 | 32622 ft | 457 kts | 193° |
| 2026-05-08 17:01 | 47.65184 | 1.90077 | 32932 ft | 456 kts | 193° |
| 2026-05-08 17:01 | 47.62062 | 1.89293 | 32990 ft | 454 kts | 193° |
| 2026-05-08 17:01 | 47.55827 | 1.87739 | 32981 ft | 453 kts | 193° |
| 2026-05-08 17:02 | 47.49679 | 1.86100 | 32979 ft | 449 kts | 200° |
| 2026-05-08 17:02 | 47.46833 | 1.84309 | 32979 ft | 441 kts | 215° |
| 2026-05-08 17:02 | 47.44439 | 1.81541 | 32977 ft | 434 kts | 229° |
| 2026-05-08 17:03 | 47.40753 | 1.74547 | 32974 ft | 431 kts | 236° |
| 2026-05-08 17:03 | 47.37171 | 1.67439 | 32957 ft | 431 kts | 236° |
| 2026-05-08 17:04 | 47.33565 | 1.60360 | 32953 ft | 432 kts | 233° |
| 2026-05-08 17:04 | 47.29756 | 1.53507 | 32959 ft | 432 kts | 231° |
| 2026-05-08 17:05 | 47.25836 | 1.46758 | 33215 ft | 434 kts | 231° |
| 2026-05-08 17:05 | 47.23885 | 1.43384 | 33724 ft | 432 kts | 231° |
| 2026-05-08 17:05 | 47.21978 | 1.40057 | 34190 ft | 430 kts | 232° |
| 2026-05-08 17:06 | 47.20040 | 1.36650 | 34640 ft | 428 kts | 232° |
| 2026-05-08 17:06 | 47.18158 | 1.33328 | 35081 ft | 427 kts | 232° |
| 2026-05-08 17:06 | 47.16263 | 1.29985 | 35507 ft | 425 kts | 231° |
| 2026-05-08 17:06 | 47.14372 | 1.26655 | 35952 ft | 422 kts | 231° |
| 2026-05-08 17:07 | 47.12490 | 1.23348 | 36379 ft | 420 kts | 231° |
| 2026-05-08 17:07 | 47.10614 | 1.20066 | 36780 ft | 419 kts | 231° |
| 2026-05-08 17:07 | 47.08739 | 1.16799 | 37152 ft | 418 kts | 231° |
| 2026-05-08 17:07 | 47.06868 | 1.13543 | 37515 ft | 417 kts | 231° |
| 2026-05-08 17:08 | 47.04997 | 1.10289 | 37879 ft | 416 kts | 231° |
| 2026-05-08 17:08 | 47.03138 | 1.07058 | 38216 ft | 415 kts | 231° |
| 2026-05-08 17:08 | 47.01278 | 1.03824 | 38511 ft | 414 kts | 231° |
| 2026-05-08 17:08 | 46.99420 | 1.00589 | 38752 ft | 414 kts | 231° |
| 2026-05-08 17:09 | 46.97568 | 0.97364 | 38909 ft | 414 kts | 231° |
| 2026-05-08 17:09 | 46.95715 | 0.94138 | 38951 ft | 414 kts | 230° |
| 2026-05-08 17:09 | 46.91993 | 0.87673 | 38959 ft | 415 kts | 230° |
| 2026-05-08 17:10 | 46.88268 | 0.81231 | 38967 ft | 415 kts | 230° |
| 2026-05-08 17:10 | 46.85147 | 0.75865 | 38968 ft | 418 kts | 230° |
| 2026-05-08 17:11 | 46.80759 | 0.68338 | 38955 ft | 419 kts | 230° |
| 2026-05-08 17:11 | 46.76985 | 0.61861 | 38953 ft | 419 kts | 230° |
| 2026-05-08 17:12 | 46.73820 | 0.56438 | 38951 ft | 419 kts | 230° |
| 2026-05-08 17:12 | 46.70031 | 0.49989 | 38947 ft | 419 kts | 230° |
| 2026-05-08 17:13 | 46.66266 | 0.43590 | 38942 ft | 419 kts | 230° |
| 2026-05-08 17:13 | 46.62449 | 0.37111 | 38944 ft | 419 kts | 229° |
| 2026-05-08 17:14 | 46.58734 | 0.30645 | 38934 ft | 420 kts | 234° |
| 2026-05-08 17:14 | 46.55998 | 0.23147 | 38927 ft | 421 kts | 244° |
| 2026-05-08 17:15 | 46.53556 | 0.15395 | 38926 ft | 422 kts | 244° |
| 2026-05-08 17:15 | 46.51091 | 0.07628 | 38926 ft | 423 kts | 244° |
| 2026-05-08 17:16 | 46.48625 | -0.00127 | 38930 ft | 424 kts | 244° |
| 2026-05-08 17:16 | 46.46137 | -0.07900 | 38922 ft | 425 kts | 243° |
| 2026-05-08 17:17 | 46.43632 | -0.15661 | 38921 ft | 425 kts | 243° |
| 2026-05-08 17:17 | 46.41122 | -0.23433 | 38923 ft | 426 kts | 243° |
| 2026-05-08 17:18 | 46.38631 | -0.31172 | 38925 ft | 426 kts | 243° |
| 2026-05-08 17:18 | 46.36124 | -0.38944 | 38923 ft | 426 kts | 243° |
| 2026-05-08 17:19 | 46.33589 | -0.46712 | 38922 ft | 427 kts | 243° |
| 2026-05-08 17:19 | 46.31048 | -0.54489 | 38921 ft | 427 kts | 243° |
| 2026-05-08 17:20 | 46.28512 | -0.62260 | 38922 ft | 427 kts | 243° |
| 2026-05-08 17:20 | 46.25965 | -0.70024 | 38921 ft | 427 kts | 243° |
| 2026-05-08 17:21 | 46.23416 | -0.77787 | 38922 ft | 428 kts | 243° |
| 2026-05-08 17:21 | 46.20856 | -0.85544 | 38925 ft | 428 kts | 242° |
| 2026-05-08 17:22 | 46.18287 | -0.93300 | 38923 ft | 428 kts | 242° |
| 2026-05-08 17:22 | 46.15717 | -1.01047 | 38908 ft | 429 kts | 242° |
| 2026-05-08 17:23 | 46.13134 | -1.08811 | 38906 ft | 429 kts | 242° |
| 2026-05-08 17:23 | 46.10545 | -1.16571 | 38907 ft | 430 kts | 242° |
| 2026-05-08 17:24 | 46.07947 | -1.24331 | 38917 ft | 430 kts | 242° |
| 2026-05-08 17:24 | 46.05336 | -1.32084 | 38913 ft | 431 kts | 242° |
| 2026-05-08 17:25 | 46.02843 | -1.39474 | 38911 ft | 431 kts | 242° |
| 2026-05-08 17:25 | 46.00220 | -1.47237 | 38916 ft | 431 kts | 242° |
| 2026-05-08 17:26 | 45.97593 | -1.54996 | 38911 ft | 431 kts | 242° |
| 2026-05-08 17:26 | 45.94786 | -1.62588 | 38925 ft | 428 kts | 232° |
| 2026-05-08 17:27 | 45.90644 | -1.68601 | 38916 ft | 423 kts | 213° |
| 2026-05-08 17:27 | 45.85596 | -1.72895 | 38912 ft | 422 kts | 208° |
| 2026-05-08 17:28 | 45.80501 | -1.77086 | 38910 ft | 422 kts | 208° |
| 2026-05-08 17:28 | 45.75401 | -1.81265 | 38906 ft | 422 kts | 208° |
| 2026-05-08 17:29 | 45.70285 | -1.85424 | 38905 ft | 422 kts | 208° |
| 2026-05-08 17:29 | 45.65169 | -1.89562 | 38909 ft | 422 kts | 208° |
| 2026-05-08 17:30 | 45.60089 | -1.93674 | 38910 ft | 422 kts | 208° |
| 2026-05-08 17:30 | 45.54941 | -1.97838 | 38920 ft | 422 kts | 208° |
| 2026-05-08 17:31 | 45.49826 | -2.01955 | 38918 ft | 423 kts | 208° |
| 2026-05-08 17:31 | 45.44730 | -2.06048 | 38911 ft | 423 kts | 208° |
| 2026-05-08 17:32 | 45.39603 | -2.10166 | 38909 ft | 423 kts | 208° |
| 2026-05-08 17:32 | 45.34470 | -2.14275 | 38909 ft | 423 kts | 208° |
| 2026-05-08 17:33 | 45.29336 | -2.18379 | 38903 ft | 423 kts | 208° |
| 2026-05-08 17:33 | 45.24189 | -2.22470 | 38902 ft | 423 kts | 208° |
| 2026-05-08 17:34 | 45.19045 | -2.26552 | 38903 ft | 424 kts | 208° |
| 2026-05-08 17:34 | 45.13938 | -2.30614 | 38917 ft | 424 kts | 208° |
| 2026-05-08 17:35 | 45.08793 | -2.34704 | 38914 ft | 423 kts | 208° |
| 2026-05-08 17:35 | 45.03649 | -2.38767 | 38908 ft | 423 kts | 208° |
| 2026-05-08 17:36 | 44.98505 | -2.42825 | 38909 ft | 423 kts | 208° |
| 2026-05-08 17:36 | 44.93363 | -2.46881 | 38909 ft | 423 kts | 208° |
| 2026-05-08 17:37 | 44.88215 | -2.50927 | 38904 ft | 423 kts | 208° |
| 2026-05-08 17:37 | 44.83076 | -2.54957 | 38903 ft | 423 kts | 208° |
| 2026-05-08 17:38 | 44.80500 | -2.56974 | 38760 ft | 424 kts | 208° |
| 2026-05-08 17:38 | 44.77920 | -2.58977 | 38532 ft | 423 kts | 207° |
| 2026-05-08 17:38 | 44.75345 | -2.60972 | 38255 ft | 422 kts | 207° |
| 2026-05-08 17:38 | 44.72773 | -2.62972 | 37983 ft | 422 kts | 207° |
| 2026-05-08 17:39 | 44.70201 | -2.64976 | 37695 ft | 423 kts | 207° |
| 2026-05-08 17:39 | 44.67652 | -2.66955 | 37425 ft | 423 kts | 207° |
| 2026-05-08 17:39 | 44.65070 | -2.68956 | 37177 ft | 424 kts | 207° |
| 2026-05-08 17:39 | 44.62486 | -2.70960 | 36909 ft | 424 kts | 206° |
| 2026-05-08 17:40 | 44.59902 | -2.72966 | 36643 ft | 425 kts | 206° |
| 2026-05-08 17:40 | 44.57314 | -2.74977 | 36373 ft | 425 kts | 206° |
| 2026-05-08 17:40 | 44.54724 | -2.76989 | 36075 ft | 426 kts | 206° |
| 2026-05-08 17:40 | 44.52131 | -2.79003 | 35694 ft | 426 kts | 206° |
| 2026-05-08 17:41 | 44.49536 | -2.81019 | 35320 ft | 427 kts | 206° |
| 2026-05-08 17:41 | 44.46933 | -2.83033 | 34955 ft | 428 kts | 206° |
| 2026-05-08 17:41 | 44.44321 | -2.85043 | 34598 ft | 429 kts | 205° |
| 2026-05-08 17:41 | 44.41697 | -2.87056 | 34244 ft | 430 kts | 205° |
| 2026-05-08 17:42 | 44.39077 | -2.89062 | 33895 ft | 431 kts | 205° |
| 2026-05-08 17:42 | 44.36427 | -2.91089 | 32931 ft | 436 kts | 206° |
| 2026-05-08 17:42 | 44.33759 | -2.93133 | 31990 ft | 438 kts | 206° |
| 2026-05-08 17:42 | 44.31116 | -2.95169 | 31466 ft | 431 kts | 206° |
| 2026-05-08 17:43 | 44.28508 | -2.97181 | 30845 ft | 426 kts | 206° |
| 2026-05-08 17:43 | 44.25929 | -2.99169 | 30229 ft | 421 kts | 206° |
| 2026-05-08 17:43 | 44.23405 | -3.01109 | 29572 ft | 417 kts | 206° |
| 2026-05-08 17:43 | 44.20881 | -3.03042 | 28978 ft | 411 kts | 206° |
| 2026-05-08 17:44 | 44.18386 | -3.04947 | 28396 ft | 407 kts | 206° |
| 2026-05-08 17:44 | 44.15921 | -3.06828 | 27822 ft | 401 kts | 207° |
| 2026-05-08 17:44 | 44.13488 | -3.08680 | 27253 ft | 396 kts | 207° |
| 2026-05-08 17:44 | 44.11080 | -3.10509 | 26694 ft | 391 kts | 206° |
| 2026-05-08 17:45 | 44.08711 | -3.12308 | 26146 ft | 387 kts | 207° |
| 2026-05-08 17:45 | 44.06363 | -3.14098 | 25613 ft | 383 kts | 208° |
| 2026-05-08 17:45 | 44.04185 | -3.16228 | 25063 ft | 382 kts | 218° |
| 2026-05-08 17:45 | 44.02224 | -3.18709 | 24505 ft | 380 kts | 220° |
| 2026-05-08 17:46 | 44.00284 | -3.21176 | 23964 ft | 376 kts | 220° |
| 2026-05-08 17:46 | 43.98359 | -3.23618 | 23440 ft | 373 kts | 219° |
| 2026-05-08 17:46 | 43.96471 | -3.26002 | 22884 ft | 370 kts | 220° |
| 2026-05-08 17:46 | 43.94556 | -3.28412 | 22384 ft | 365 kts | 220° |
| 2026-05-08 17:47 | 43.92679 | -3.30778 | 21893 ft | 362 kts | 220° |
| 2026-05-08 17:47 | 43.90848 | -3.33086 | 21421 ft | 359 kts | 220° |
| 2026-05-08 17:47 | 43.89011 | -3.35398 | 20929 ft | 356 kts | 220° |
| 2026-05-08 17:47 | 43.87769 | -3.36959 | 20586 ft | 354 kts | 220° |
| 2026-05-08 17:48 | 43.85363 | -3.39979 | 19933 ft | 351 kts | 220° |
| 2026-05-08 17:48 | 43.83560 | -3.42239 | 19429 ft | 348 kts | 220° |
| 2026-05-08 17:48 | 43.81770 | -3.44482 | 18927 ft | 346 kts | 219° |
| 2026-05-08 17:48 | 43.79987 | -3.46719 | 18404 ft | 344 kts | 219° |
| 2026-05-08 17:49 | 43.78220 | -3.48936 | 17847 ft | 342 kts | 219° |
| 2026-05-08 17:49 | 43.76467 | -3.51130 | 17339 ft | 338 kts | 219° |
| 2026-05-08 17:49 | 43.74733 | -3.53299 | 16844 ft | 334 kts | 220° |
| 2026-05-08 17:49 | 43.73016 | -3.55449 | 16352 ft | 332 kts | 220° |
| 2026-05-08 17:50 | 43.71307 | -3.57587 | 15870 ft | 329 kts | 220° |
| 2026-05-08 17:50 | 43.69611 | -3.59703 | 15380 ft | 327 kts | 220° |
| 2026-05-08 17:50 | 43.67946 | -3.61778 | 14910 ft | 326 kts | 220° |
| 2026-05-08 17:50 | 43.66226 | -3.63792 | 14447 ft | 322 kts | 212° |
| 2026-05-08 17:51 | 43.64153 | -3.64851 | 14037 ft | 318 kts | 187° |
| 2026-05-08 17:51 | 43.61968 | -3.64492 | 13614 ft | 321 kts | 161° |
| 2026-05-08 17:51 | 43.60128 | -3.62756 | 13168 ft | 327 kts | 134° |
| 2026-05-08 17:51 | 43.59074 | -3.59967 | 12732 ft | 335 kts | 107° |
| 2026-05-08 17:52 | 43.58713 | -3.56778 | 12290 ft | 336 kts | 103° |
| 2026-05-08 17:52 | 43.58186 | -3.53661 | 11830 ft | 332 kts | 110° |
| 2026-05-08 17:52 | 43.56167 | -3.48079 | 10936 ft | 322 kts | 126° |
| 2026-05-08 17:53 | 43.54965 | -3.45486 | 10490 ft | 320 kts | 126° |
| 2026-05-08 17:53 | 43.53782 | -3.42947 | 10296 ft | 308 kts | 126° |
| 2026-05-08 17:53 | 43.52650 | -3.40516 | 10177 ft | 295 kts | 126° |
| 2026-05-08 17:53 | 43.51443 | -3.38326 | 10014 ft | 280 kts | 140° |
| 2026-05-08 17:54 | 43.49859 | -3.36881 | 9699 ft | 271 kts | 157° |
| 2026-05-08 17:54 | 43.48116 | -3.35978 | 9249 ft | 266 kts | 167° |
| 2026-05-08 17:54 | 43.46319 | -3.35603 | 8716 ft | 263 kts | 179° |
| 2026-05-08 17:54 | 43.44481 | -3.35608 | 8217 ft | 263 kts | 182° |
| 2026-05-08 17:55 | 43.42663 | -3.35737 | 7702 ft | 260 kts | 184° |
| 2026-05-08 17:55 | 43.40862 | -3.35949 | 7145 ft | 259 kts | 186° |
| 2026-05-08 17:55 | 43.39079 | -3.36258 | 6712 ft | 253 kts | 188° |
| 2026-05-08 17:55 | 43.37403 | -3.36647 | 6592 ft | 235 kts | 190° |
| 2026-05-08 17:56 | 43.35846 | -3.37121 | 6268 ft | 225 kts | 197° |
| 2026-05-08 17:56 | 43.34479 | -3.38088 | 5829 ft | 225 kts | 216° |
| 2026-05-08 17:56 | 43.33397 | -3.39635 | 5377 ft | 227 kts | 234° |
| 2026-05-08 17:56 | 43.32737 | -3.41608 | 4910 ft | 230 kts | 253° |
| 2026-05-08 17:57 | 43.32604 | -3.43798 | 4700 ft | 229 kts | 273° |
| 2026-05-08 17:57 | 43.32977 | -3.45910 | 4572 ft | 230 kts | 288° |
| 2026-05-08 17:57 | 43.33538 | -3.47968 | 4533 ft | 230 kts | 288° |
| 2026-05-08 17:57 | 43.34095 | -3.50017 | 4449 ft | 225 kts | 288° |
| 2026-05-08 17:58 | 43.34629 | -3.51986 | 4322 ft | 216 kts | 288° |
| 2026-05-08 17:58 | 43.34973 | -3.53258 | 4163 ft | 213 kts | 288° |
| 2026-05-08 17:58 | 43.35487 | -3.55159 | 3897 ft | 212 kts | 288° |
| 2026-05-08 17:58 | 43.36000 | -3.57058 | 3606 ft | 212 kts | 288° |
| 2026-05-08 17:59 | 43.36511 | -3.58950 | 3329 ft | 210 kts | 289° |
| 2026-05-08 17:59 | 43.37015 | -3.60818 | 3077 ft | 207 kts | 290° |
| 2026-05-08 17:59 | 43.37510 | -3.62650 | 2783 ft | 202 kts | 289° |
| 2026-05-08 17:59 | 43.37986 | -3.64414 | 2515 ft | 192 kts | 290° |
| 2026-05-08 18:00 | 43.38437 | -3.66092 | 2261 ft | 182 kts | 290° |
| 2026-05-08 18:00 | 43.39254 | -3.69127 | 1819 ft | 156 kts | 291° |
| 2026-05-08 18:00 | 43.39607 | -3.70442 | 1615 ft | 139 kts | 291° |
| 2026-05-08 18:01 | 43.39931 | -3.71647 | 1432 ft | 131 kts | 291° |
| 2026-05-08 18:01 | 43.40244 | -3.72810 | 1257 ft | 128 kts | 291° |
| 2026-05-08 18:01 | 43.40551 | -3.73954 | 1084 ft | 127 kts | 291° |
| 2026-05-08 18:01 | 43.40856 | -3.75091 | 921 ft | 127 kts | 291° |
| 2026-05-08 18:02 | 43.41162 | -3.76231 | 748 ft | 128 kts | 292° |
| 2026-05-08 18:02 | 43.41470 | -3.77380 | 579 ft | 128 kts | 292° |
| 2026-05-08 18:02 | 43.41781 | -3.78539 | 397 ft | 129 kts | 291° |
| 2026-05-08 18:02 | 43.42093 | -3.79699 | 240 ft | 129 kts | 292° |
| 2026-05-08 18:03 | 43.42401 | -3.80860 | 45 ft | 128 kts | 293° |
| 2026-05-08 18:03 | 43.42677 | -3.81887 | 21 ft | 96 kts | 290° |
| 2026-05-08 18:03 | 43.42847 | -3.82527 | 19 ft | 47 kts | 290° |
| 2026-05-08 18:03 | 43.42924 | -3.82815 | 20 ft | 19 kts | 290° |
| 2026-05-08 18:04 | 43.42935 | -3.82958 | 22 ft | 13 kts | 247° |
| 2026-05-08 18:04 | 43.42875 | -3.83038 | 19 ft | 13 kts | 194° |
| 2026-05-08 18:04 | 43.42799 | -3.82979 | 19 ft | 14 kts | 114° |
| 2026-05-08 18:04 | 43.42763 | -3.82846 | 19 ft | 16 kts | 110° |
| 2026-05-08 18:05 | 43.42723 | -3.82697 | 19 ft | 17 kts | 110° |
| 2026-05-08 18:05 | 43.42682 | -3.82545 | 20 ft | 17 kts | 110° |
| 2026-05-08 18:05 | 43.42645 | -3.82404 | 20 ft | 14 kts | 110° |
| 2026-05-08 18:05 | 43.42609 | -3.82301 | 20 ft | 10 kts | 146° |
| 2026-05-08 18:06 | 43.42547 | -3.82316 | 19 ft | 7 kts | 204° |
| 2026-05-08 18:06 | 43.42545 | -3.82369 | 19 ft | 4 kts | 292° |
| 2026-05-08 18:06 | 43.42553 | -3.82400 | 19 ft | 2 kts | 290° |
| 2026-05-08 18:06 | 43.42553 | -3.82401 | 19 ft | 0 kts | 290° |